sensor_id;sensor_type;location;lat;lon;timestamp;P1;durP1;ratioP1;P2;durP2;ratioP2
577;SDS011;275;48.492;9.214;2022-12-04T00:01:56;21.13;;;19.05;;
577;SDS011;275;48.492;9.214;2022-12-04T00:04:23;20.27;;;18.27;;
577;SDS011;275;48.492;9.214;2022-12-04T00:06:52;19.90;;;18.00;;
577;SDS011;275;48.492;9.214;2022-12-04T00:09:19;20.38;;;18.38;;
577;SDS011;275;48.492;9.214;2022-12-04T00:11:47;23.38;;;21.08;;
577;SDS011;275;48.492;9.214;2022-12-04T00:14:15;21.00;;;19.00;;
577;SDS011;275;48.492;9.214;2022-12-04T00:16:43;22.23;;;20.02;;
577;SDS011;275;48.492;9.214;2022-12-04T00:19:09;22.50;;;20.20;;
577;SDS011;275;48.492;9.214;2022-12-04T00:21:36;22.50;;;20.40;;
577;SDS011;275;48.492;9.214;2022-12-04T00:24:03;21.65;;;19.48;;
577;SDS011;275;48.492;9.214;2022-12-04T00:26:31;22.15;;;19.98;;
577;SDS011;275;48.492;9.214;2022-12-04T00:28:58;21.70;;;19.55;;
577;SDS011;275;48.492;9.214;2022-12-04T00:31:27;20.17;;;18.17;;
577;SDS011;275;48.492;9.214;2022-12-04T00:33:55;23.02;;;20.73;;
577;SDS011;275;48.492;9.214;2022-12-04T00:36:23;25.17;;;22.67;;
577;SDS011;275;48.492;9.214;2022-12-04T00:38:51;24.13;;;21.80;;
577;SDS011;275;48.492;9.214;2022-12-04T00:41:19;23.15;;;20.95;;
577;SDS011;275;48.492;9.214;2022-12-04T00:43:47;22.58;;;20.27;;
577;SDS011;275;48.492;9.214;2022-12-04T00:46:15;23.58;;;21.17;;
577;SDS011;275;48.492;9.214;2022-12-04T00:48:44;23.13;;;20.80;;
577;SDS011;275;48.492;9.214;2022-12-04T00:51:11;22.60;;;20.30;;
577;SDS011;275;48.492;9.214;2022-12-04T00:53:40;21.33;;;19.35;;
577;SDS011;275;48.492;9.214;2022-12-04T00:56:08;21.63;;;19.48;;
577;SDS011;275;48.492;9.214;2022-12-04T00:58:36;20.42;;;18.33;;
577;SDS011;275;48.492;9.214;2022-12-04T01:01:03;21.77;;;19.70;;
577;SDS011;275;48.492;9.214;2022-12-04T01:03:32;23.38;;;21.13;;
577;SDS011;275;48.492;9.214;2022-12-04T01:06:01;21.77;;;19.58;;
577;SDS011;275;48.492;9.214;2022-12-04T01:08:28;20.20;;;18.20;;
577;SDS011;275;48.492;9.214;2022-12-04T01:10:56;22.33;;;20.15;;
577;SDS011;275;48.492;9.214;2022-12-04T01:13:23;21.50;;;19.30;;
577;SDS011;275;48.492;9.214;2022-12-04T01:15:51;22.88;;;20.58;;
577;SDS011;275;48.492;9.214;2022-12-04T01:18:18;23.40;;;21.10;;
577;SDS011;275;48.492;9.214;2022-12-04T01:20:46;23.67;;;21.38;;
577;SDS011;275;48.492;9.214;2022-12-04T01:23:15;22.60;;;20.40;;
577;SDS011;275;48.492;9.214;2022-12-04T01:25:48;21.98;;;19.92;;
577;SDS011;275;48.492;9.214;2022-12-04T01:28:16;22.45;;;20.20;;
577;SDS011;275;48.492;9.214;2022-12-04T01:30:43;21.38;;;19.30;;
577;SDS011;275;48.492;9.214;2022-12-04T01:33:10;21.70;;;19.58;;
577;SDS011;275;48.492;9.214;2022-12-04T01:35:36;21.13;;;19.13;;
577;SDS011;275;48.492;9.214;2022-12-04T01:38:03;22.90;;;20.67;;
577;SDS011;275;48.492;9.214;2022-12-04T01:40:31;22.42;;;20.23;;
577;SDS011;275;48.492;9.214;2022-12-04T01:42:58;21.33;;;19.13;;
577;SDS011;275;48.492;9.214;2022-12-04T01:45:30;21.15;;;19.00;;
577;SDS011;275;48.492;9.214;2022-12-04T01:48:06;19.98;;;18.13;;
577;SDS011;275;48.492;9.214;2022-12-04T01:50:41;20.27;;;18.30;;
577;SDS011;275;48.492;9.214;2022-12-04T01:53:09;22.15;;;20.00;;
577;SDS011;275;48.492;9.214;2022-12-04T01:55:38;22.73;;;20.63;;
577;SDS011;275;48.492;9.214;2022-12-04T01:58:06;15.48;;;14.02;;
577;SDS011;275;48.492;9.214;2022-12-04T02:00:33;20.60;;;18.50;;
577;SDS011;275;48.492;9.214;2022-12-04T02:03:00;21.38;;;19.27;;
577;SDS011;275;48.492;9.214;2022-12-04T02:05:27;23.65;;;21.27;;
577;SDS011;275;48.492;9.214;2022-12-04T02:07:55;22.08;;;19.83;;
577;SDS011;275;48.492;9.214;2022-12-04T02:10:25;22.58;;;20.45;;
577;SDS011;275;48.492;9.214;2022-12-04T02:13:04;22.63;;;20.42;;
577;SDS011;275;48.492;9.214;2022-12-04T02:15:38;22.55;;;20.30;;
577;SDS011;275;48.492;9.214;2022-12-04T02:18:12;21.80;;;19.60;;
577;SDS011;275;48.492;9.214;2022-12-04T02:20:47;24.40;;;21.85;;
577;SDS011;275;48.492;9.214;2022-12-04T02:23:34;21.45;;;19.45;;
577;SDS011;275;48.492;9.214;2022-12-04T02:29:14;21.13;;;19.02;;
577;SDS011;275;48.492;9.214;2022-12-04T02:31:49;21.98;;;20.00;;
577;SDS011;275;48.492;9.214;2022-12-04T02:34:22;20.75;;;18.75;;
577;SDS011;275;48.492;9.214;2022-12-04T02:36:54;23.55;;;21.15;;
577;SDS011;275;48.492;9.214;2022-12-04T02:39:27;25.80;;;23.30;;
577;SDS011;275;48.492;9.214;2022-12-04T02:42:01;24.70;;;22.30;;
577;SDS011;275;48.492;9.214;2022-12-04T02:44:33;24.00;;;21.73;;
577;SDS011;275;48.492;9.214;2022-12-04T02:47:05;23.50;;;21.33;;
577;SDS011;275;48.492;9.214;2022-12-04T02:49:37;24.50;;;22.20;;
577;SDS011;275;48.492;9.214;2022-12-04T02:52:10;23.33;;;21.05;;
577;SDS011;275;48.492;9.214;2022-12-04T02:54:41;25.25;;;22.80;;
577;SDS011;275;48.492;9.214;2022-12-04T02:57:13;23.90;;;21.55;;
577;SDS011;275;48.492;9.214;2022-12-04T02:59:46;26.90;;;24.30;;
577;SDS011;275;48.492;9.214;2022-12-04T03:02:17;28.58;;;25.95;;
577;SDS011;275;48.492;9.214;2022-12-04T03:04:48;26.35;;;23.98;;
577;SDS011;275;48.492;9.214;2022-12-04T03:07:18;26.95;;;24.38;;
577;SDS011;275;48.492;9.214;2022-12-04T03:09:51;26.67;;;24.00;;
577;SDS011;275;48.492;9.214;2022-12-04T03:12:22;26.95;;;24.35;;
577;SDS011;275;48.492;9.214;2022-12-04T03:14:57;27.27;;;24.58;;
577;SDS011;275;48.492;9.214;2022-12-04T03:17:29;29.83;;;26.92;;
577;SDS011;275;48.492;9.214;2022-12-04T03:20:00;28.90;;;26.17;;
577;SDS011;275;48.492;9.214;2022-12-04T03:22:30;29.80;;;26.80;;
577;SDS011;275;48.492;9.214;2022-12-04T03:24:58;28.58;;;25.70;;
577;SDS011;275;48.492;9.214;2022-12-04T03:27:29;29.92;;;26.92;;
577;SDS011;275;48.492;9.214;2022-12-04T03:30:05;29.05;;;26.13;;
577;SDS011;275;48.492;9.214;2022-12-04T03:32:35;28.98;;;26.08;;
577;SDS011;275;48.492;9.214;2022-12-04T03:35:10;28.90;;;26.02;;
577;SDS011;275;48.492;9.214;2022-12-04T03:37:42;28.27;;;25.63;;
577;SDS011;275;48.492;9.214;2022-12-04T03:40:16;30.75;;;27.63;;
577;SDS011;275;48.492;9.214;2022-12-04T03:42:47;30.20;;;27.30;;
577;SDS011;275;48.492;9.214;2022-12-04T03:45:21;28.70;;;25.80;;
577;SDS011;275;48.492;9.214;2022-12-04T03:47:52;28.80;;;25.80;;
577;SDS011;275;48.492;9.214;2022-12-04T03:50:27;28.33;;;25.52;;
577;SDS011;275;48.492;9.214;2022-12-04T03:53:02;27.38;;;24.58;;
577;SDS011;275;48.492;9.214;2022-12-04T03:55:34;31.00;;;28.02;;
577;SDS011;275;48.492;9.214;2022-12-04T03:58:07;29.55;;;26.55;;
577;SDS011;275;48.492;9.214;2022-12-04T04:00:40;29.27;;;26.38;;
577;SDS011;275;48.492;9.214;2022-12-04T04:03:09;28.05;;;25.45;;
577;SDS011;275;48.492;9.214;2022-12-04T04:05:40;28.17;;;25.38;;
577;SDS011;275;48.492;9.214;2022-12-04T04:08:10;29.17;;;26.48;;
577;SDS011;275;48.492;9.214;2022-12-04T04:10:56;25.67;;;23.27;;
577;SDS011;275;48.492;9.214;2022-12-04T04:13:31;24.98;;;22.52;;
577;SDS011;275;48.492;9.214;2022-12-04T04:16:21;25.75;;;23.27;;
577;SDS011;275;48.492;9.214;2022-12-04T04:19:08;27.85;;;25.15;;
577;SDS011;275;48.492;9.214;2022-12-04T04:21:56;26.65;;;24.02;;
577;SDS011;275;48.492;9.214;2022-12-04T04:24:44;26.90;;;24.52;;
577;SDS011;275;48.492;9.214;2022-12-04T04:27:12;26.75;;;24.35;;
577;SDS011;275;48.492;9.214;2022-12-04T04:29:39;22.95;;;20.75;;
577;SDS011;275;48.492;9.214;2022-12-04T04:32:11;21.70;;;19.77;;
577;SDS011;275;48.492;9.214;2022-12-04T04:34:47;20.80;;;18.90;;
577;SDS011;275;48.492;9.214;2022-12-04T04:37:22;20.75;;;18.67;;
577;SDS011;275;48.492;9.214;2022-12-04T04:39:55;20.17;;;18.30;;
577;SDS011;275;48.492;9.214;2022-12-04T04:42:27;20.88;;;18.77;;
577;SDS011;275;48.492;9.214;2022-12-04T04:44:59;18.63;;;16.92;;
577;SDS011;275;48.492;9.214;2022-12-04T04:47:33;18.70;;;16.98;;
577;SDS011;275;48.492;9.214;2022-12-04T04:50:07;18.98;;;17.13;;
577;SDS011;275;48.492;9.214;2022-12-04T04:52:36;19.48;;;17.77;;
577;SDS011;275;48.492;9.214;2022-12-04T04:55:05;18.40;;;16.67;;
577;SDS011;275;48.492;9.214;2022-12-04T04:57:34;19.05;;;17.25;;
577;SDS011;275;48.492;9.214;2022-12-04T05:00:02;19.50;;;17.80;;
577;SDS011;275;48.492;9.214;2022-12-04T05:02:32;19.95;;;18.05;;
577;SDS011;275;48.492;9.214;2022-12-04T05:04:59;21.60;;;19.50;;
577;SDS011;275;48.492;9.214;2022-12-04T05:07:26;20.90;;;19.00;;
577;SDS011;275;48.492;9.214;2022-12-04T05:09:53;19.27;;;17.52;;
577;SDS011;275;48.492;9.214;2022-12-04T05:12:20;19.98;;;18.08;;
577;SDS011;275;48.492;9.214;2022-12-04T05:14:47;20.48;;;18.48;;
577;SDS011;275;48.492;9.214;2022-12-04T05:17:14;19.10;;;17.25;;
577;SDS011;275;48.492;9.214;2022-12-04T05:19:42;19.17;;;17.23;;
577;SDS011;275;48.492;9.214;2022-12-04T05:22:21;19.38;;;17.52;;
577;SDS011;275;48.492;9.214;2022-12-04T05:24:49;18.70;;;16.98;;
577;SDS011;275;48.492;9.214;2022-12-04T05:27:16;19.42;;;17.52;;
577;SDS011;275;48.492;9.214;2022-12-04T05:29:43;18.20;;;16.48;;
577;SDS011;275;48.492;9.214;2022-12-04T05:32:10;20.42;;;18.58;;
577;SDS011;275;48.492;9.214;2022-12-04T05:34:36;19.95;;;18.05;;
577;SDS011;275;48.492;9.214;2022-12-04T05:37:05;19.52;;;17.67;;
577;SDS011;275;48.492;9.214;2022-12-04T05:39:32;18.70;;;16.90;;
577;SDS011;275;48.492;9.214;2022-12-04T05:42:00;20.13;;;18.30;;
577;SDS011;275;48.492;9.214;2022-12-04T05:44:26;18.05;;;16.35;;
577;SDS011;275;48.492;9.214;2022-12-04T05:46:53;18.65;;;17.00;;
577;SDS011;275;48.492;9.214;2022-12-04T05:49:20;19.60;;;17.70;;
577;SDS011;275;48.492;9.214;2022-12-04T05:51:48;20.20;;;18.30;;
577;SDS011;275;48.492;9.214;2022-12-04T05:54:17;19.48;;;17.67;;
577;SDS011;275;48.492;9.214;2022-12-04T05:56:44;19.05;;;17.25;;
577;SDS011;275;48.492;9.214;2022-12-04T05:59:11;18.50;;;16.90;;
577;SDS011;275;48.492;9.214;2022-12-04T06:01:39;17.50;;;15.90;;
577;SDS011;275;48.492;9.214;2022-12-04T06:04:06;19.55;;;17.65;;
577;SDS011;275;48.492;9.214;2022-12-04T06:06:33;19.23;;;17.27;;
577;SDS011;275;48.492;9.214;2022-12-04T06:08:59;18.80;;;17.00;;
577;SDS011;275;48.492;9.214;2022-12-04T06:11:28;18.80;;;17.10;;
577;SDS011;275;48.492;9.214;2022-12-04T06:13:57;18.98;;;17.27;;
577;SDS011;275;48.492;9.214;2022-12-04T06:16:25;19.88;;;18.17;;
577;SDS011;275;48.492;9.214;2022-12-04T06:18:55;18.50;;;16.80;;
577;SDS011;275;48.492;9.214;2022-12-04T06:21:24;18.70;;;16.70;;
577;SDS011;275;48.492;9.214;2022-12-04T06:23:53;19.08;;;17.23;;
577;SDS011;275;48.492;9.214;2022-12-04T06:26:20;21.27;;;19.27;;
577;SDS011;275;48.492;9.214;2022-12-04T06:28:51;19.35;;;17.55;;
577;SDS011;275;48.492;9.214;2022-12-04T06:31:18;20.05;;;18.15;;
577;SDS011;275;48.492;9.214;2022-12-04T06:33:45;19.60;;;17.58;;
577;SDS011;275;48.492;9.214;2022-12-04T06:36:13;18.83;;;17.02;;
577;SDS011;275;48.492;9.214;2022-12-04T06:38:42;20.50;;;18.60;;
577;SDS011;275;48.492;9.214;2022-12-04T06:41:10;23.02;;;20.77;;
577;SDS011;275;48.492;9.214;2022-12-04T06:43:38;22.35;;;20.30;;
577;SDS011;275;48.492;9.214;2022-12-04T06:46:07;22.83;;;20.52;;
577;SDS011;275;48.492;9.214;2022-12-04T06:48:35;21.50;;;19.50;;
577;SDS011;275;48.492;9.214;2022-12-04T06:51:03;21.45;;;19.35;;
577;SDS011;275;48.492;9.214;2022-12-04T06:53:31;23.25;;;21.10;;
577;SDS011;275;48.492;9.214;2022-12-04T06:56:00;21.52;;;19.45;;
577;SDS011;275;48.492;9.214;2022-12-04T06:58:29;22.40;;;20.20;;
577;SDS011;275;48.492;9.214;2022-12-04T07:00:57;22.00;;;19.77;;
577;SDS011;275;48.492;9.214;2022-12-04T07:03:25;22.83;;;20.50;;
577;SDS011;275;48.492;9.214;2022-12-04T07:05:52;24.27;;;21.98;;
577;SDS011;275;48.492;9.214;2022-12-04T07:08:19;24.67;;;22.48;;
577;SDS011;275;48.492;9.214;2022-12-04T07:10:46;22.80;;;20.15;;
577;SDS011;275;48.492;9.214;2022-12-04T07:13:12;22.90;;;20.80;;
577;SDS011;275;48.492;9.214;2022-12-04T07:15:39;23.55;;;21.27;;
577;SDS011;275;48.492;9.214;2022-12-04T07:18:06;21.65;;;19.55;;
577;SDS011;275;48.492;9.214;2022-12-04T07:20:34;22.15;;;19.98;;
577;SDS011;275;48.492;9.214;2022-12-04T07:23:05;20.75;;;18.77;;
577;SDS011;275;48.492;9.214;2022-12-04T07:25:32;22.08;;;20.08;;
577;SDS011;275;48.492;9.214;2022-12-04T07:28:03;23.65;;;21.45;;
577;SDS011;275;48.492;9.214;2022-12-04T07:30:30;22.25;;;20.15;;
577;SDS011;275;48.492;9.214;2022-12-04T07:32:57;21.60;;;19.63;;
577;SDS011;275;48.492;9.214;2022-12-04T07:35:24;22.27;;;20.15;;
577;SDS011;275;48.492;9.214;2022-12-04T07:37:52;21.80;;;19.70;;
577;SDS011;275;48.492;9.214;2022-12-04T07:40:19;21.52;;;19.40;;
577;SDS011;275;48.492;9.214;2022-12-04T07:42:46;20.85;;;18.70;;
577;SDS011;275;48.492;9.214;2022-12-04T07:45:13;20.17;;;18.15;;
577;SDS011;275;48.492;9.214;2022-12-04T07:47:39;22.58;;;20.48;;
577;SDS011;275;48.492;9.214;2022-12-04T07:50:06;21.35;;;19.35;;
577;SDS011;275;48.492;9.214;2022-12-04T07:52:34;22.65;;;20.50;;
577;SDS011;275;48.492;9.214;2022-12-04T07:55:03;24.13;;;21.70;;
577;SDS011;275;48.492;9.214;2022-12-04T07:57:31;21.60;;;19.70;;
577;SDS011;275;48.492;9.214;2022-12-04T07:59:58;23.23;;;20.98;;
577;SDS011;275;48.492;9.214;2022-12-04T08:02:25;23.90;;;21.63;;
577;SDS011;275;48.492;9.214;2022-12-04T08:04:52;20.65;;;18.63;;
577;SDS011;275;48.492;9.214;2022-12-04T08:07:19;21.77;;;19.65;;
577;SDS011;275;48.492;9.214;2022-12-04T08:09:45;22.67;;;20.38;;
577;SDS011;275;48.492;9.214;2022-12-04T08:12:13;18.73;;;16.92;;
577;SDS011;275;48.492;9.214;2022-12-04T08:14:40;25.58;;;22.95;;
577;SDS011;275;48.492;9.214;2022-12-04T08:17:07;21.40;;;19.30;;
577;SDS011;275;48.492;9.214;2022-12-04T08:19:34;21.98;;;19.95;;
577;SDS011;275;48.492;9.214;2022-12-04T08:22:01;20.15;;;18.25;;
577;SDS011;275;48.492;9.214;2022-12-04T08:24:28;22.30;;;20.10;;
577;SDS011;275;48.492;9.214;2022-12-04T08:26:54;22.90;;;20.63;;
577;SDS011;275;48.492;9.214;2022-12-04T08:29:23;22.75;;;20.55;;
577;SDS011;275;48.492;9.214;2022-12-04T08:31:49;20.85;;;18.85;;
577;SDS011;275;48.492;9.214;2022-12-04T08:34:16;20.88;;;18.90;;
577;SDS011;275;48.492;9.214;2022-12-04T08:36:43;20.70;;;18.58;;
577;SDS011;275;48.492;9.214;2022-12-04T08:39:10;20.60;;;18.70;;
577;SDS011;275;48.492;9.214;2022-12-04T08:41:37;23.27;;;21.08;;
577;SDS011;275;48.492;9.214;2022-12-04T08:44:04;21.55;;;19.55;;
577;SDS011;275;48.492;9.214;2022-12-04T08:46:32;20.63;;;18.73;;
577;SDS011;275;48.492;9.214;2022-12-04T08:48:59;20.40;;;18.45;;
577;SDS011;275;48.492;9.214;2022-12-04T08:51:27;22.48;;;20.33;;
577;SDS011;275;48.492;9.214;2022-12-04T08:53:56;22.23;;;20.13;;
577;SDS011;275;48.492;9.214;2022-12-04T08:56:24;19.05;;;17.20;;
577;SDS011;275;48.492;9.214;2022-12-04T08:58:53;20.50;;;18.60;;
577;SDS011;275;48.492;9.214;2022-12-04T09:01:21;22.20;;;20.10;;
577;SDS011;275;48.492;9.214;2022-12-04T09:03:49;21.85;;;19.80;;
577;SDS011;275;48.492;9.214;2022-12-04T09:06:16;22.63;;;20.38;;
577;SDS011;275;48.492;9.214;2022-12-04T09:08:43;21.90;;;19.70;;
577;SDS011;275;48.492;9.214;2022-12-04T09:11:11;21.73;;;19.73;;
577;SDS011;275;48.492;9.214;2022-12-04T09:13:40;21.55;;;19.52;;
577;SDS011;275;48.492;9.214;2022-12-04T09:16:08;21.65;;;19.45;;
577;SDS011;275;48.492;9.214;2022-12-04T09:18:37;19.33;;;17.50;;
577;SDS011;275;48.492;9.214;2022-12-04T09:21:06;21.20;;;19.30;;
577;SDS011;275;48.492;9.214;2022-12-04T09:23:36;20.45;;;18.35;;
577;SDS011;275;48.492;9.214;2022-12-04T09:26:04;22.50;;;20.30;;
577;SDS011;275;48.492;9.214;2022-12-04T09:28:42;20.30;;;18.40;;
577;SDS011;275;48.492;9.214;2022-12-04T09:31:09;22.05;;;19.77;;
577;SDS011;275;48.492;9.214;2022-12-04T09:33:36;23.60;;;21.20;;
577;SDS011;275;48.492;9.214;2022-12-04T09:36:03;37.95;;;28.05;;
577;SDS011;275;48.492;9.214;2022-12-04T09:38:31;22.77;;;20.50;;
577;SDS011;275;48.492;9.214;2022-12-04T09:41:00;23.85;;;21.55;;
577;SDS011;275;48.492;9.214;2022-12-04T09:43:31;22.20;;;20.10;;
577;SDS011;275;48.492;9.214;2022-12-04T09:46:07;22.20;;;20.20;;
577;SDS011;275;48.492;9.214;2022-12-04T09:48:37;22.25;;;20.00;;
577;SDS011;275;48.492;9.214;2022-12-04T09:51:07;21.73;;;19.67;;
577;SDS011;275;48.492;9.214;2022-12-04T09:53:45;19.60;;;17.80;;
577;SDS011;275;48.492;9.214;2022-12-04T09:56:16;22.20;;;20.10;;
577;SDS011;275;48.492;9.214;2022-12-04T09:58:46;19.40;;;17.52;;
577;SDS011;275;48.492;9.214;2022-12-04T10:01:20;22.00;;;19.90;;
577;SDS011;275;48.492;9.214;2022-12-04T10:03:49;22.60;;;20.40;;
577;SDS011;275;48.492;9.214;2022-12-04T10:06:19;22.77;;;20.67;;
577;SDS011;275;48.492;9.214;2022-12-04T10:08:52;22.15;;;20.02;;
577;SDS011;275;48.492;9.214;2022-12-04T10:11:26;22.13;;;20.02;;
577;SDS011;275;48.492;9.214;2022-12-04T10:14:13;24.33;;;22.02;;
577;SDS011;275;48.492;9.214;2022-12-04T10:16:53;23.25;;;21.13;;
577;SDS011;275;48.492;9.214;2022-12-04T10:19:36;24.58;;;22.05;;
577;SDS011;275;48.492;9.214;2022-12-04T10:22:12;25.05;;;22.75;;
577;SDS011;275;48.492;9.214;2022-12-04T10:24:48;23.60;;;21.17;;
577;SDS011;275;48.492;9.214;2022-12-04T10:27:19;23.20;;;21.00;;
577;SDS011;275;48.492;9.214;2022-12-04T10:29:49;83.38;;;45.67;;
577;SDS011;275;48.492;9.214;2022-12-04T10:32:21;36.25;;;27.60;;
577;SDS011;275;48.492;9.214;2022-12-04T10:34:51;22.98;;;20.77;;
577;SDS011;275;48.492;9.214;2022-12-04T10:37:21;22.55;;;20.33;;
577;SDS011;275;48.492;9.214;2022-12-04T10:39:51;22.77;;;20.58;;
577;SDS011;275;48.492;9.214;2022-12-04T10:42:23;24.15;;;21.75;;
577;SDS011;275;48.492;9.214;2022-12-04T10:44:56;24.88;;;22.45;;
577;SDS011;275;48.492;9.214;2022-12-04T10:47:23;18.58;;;16.60;;
577;SDS011;275;48.492;9.214;2022-12-04T10:49:53;26.63;;;23.00;;
577;SDS011;275;48.492;9.214;2022-12-04T10:52:25;25.67;;;23.33;;
577;SDS011;275;48.492;9.214;2022-12-04T10:54:54;25.05;;;22.55;;
577;SDS011;275;48.492;9.214;2022-12-04T10:57:33;25.50;;;23.00;;
577;SDS011;275;48.492;9.214;2022-12-04T11:00:03;35.47;;;32.13;;
577;SDS011;275;48.492;9.214;2022-12-04T11:02:48;34.55;;;30.95;;
577;SDS011;275;48.492;9.214;2022-12-04T11:05:22;43.13;;;35.13;;
577;SDS011;275;48.492;9.214;2022-12-04T11:07:50;30.27;;;27.42;;
577;SDS011;275;48.492;9.214;2022-12-04T11:10:21;25.02;;;22.58;;
577;SDS011;275;48.492;9.214;2022-12-04T11:12:53;24.88;;;22.48;;
577;SDS011;275;48.492;9.214;2022-12-04T11:15:21;26.70;;;24.02;;
577;SDS011;275;48.492;9.214;2022-12-04T11:17:48;30.60;;;27.67;;
577;SDS011;275;48.492;9.214;2022-12-04T11:20:17;31.58;;;28.58;;
577;SDS011;275;48.492;9.214;2022-12-04T11:22:49;37.22;;;33.78;;
577;SDS011;275;48.492;9.214;2022-12-04T11:25:18;25.75;;;23.20;;
577;SDS011;275;48.492;9.214;2022-12-04T11:27:48;26.50;;;23.90;;
577;SDS011;275;48.492;9.214;2022-12-04T11:30:19;27.67;;;24.95;;
577;SDS011;275;48.492;9.214;2022-12-04T11:32:50;25.45;;;23.00;;
577;SDS011;275;48.492;9.214;2022-12-04T11:35:19;30.80;;;27.92;;
577;SDS011;275;48.492;9.214;2022-12-04T11:37:51;42.35;;;38.25;;
577;SDS011;275;48.492;9.214;2022-12-04T11:40:23;23.33;;;21.08;;
577;SDS011;275;48.492;9.214;2022-12-04T11:43:02;24.85;;;22.45;;
577;SDS011;275;48.492;9.214;2022-12-04T11:45:30;22.83;;;20.45;;
577;SDS011;275;48.492;9.214;2022-12-04T11:47:59;25.05;;;22.55;;
577;SDS011;275;48.492;9.214;2022-12-04T11:50:29;26.20;;;23.58;;
577;SDS011;275;48.492;9.214;2022-12-04T11:53:08;24.95;;;22.45;;
577;SDS011;275;48.492;9.214;2022-12-04T11:55:44;25.70;;;23.10;;
577;SDS011;275;48.492;9.214;2022-12-04T11:58:21;32.85;;;29.65;;
577;SDS011;275;48.492;9.214;2022-12-04T12:01:09;29.67;;;26.48;;
577;SDS011;275;48.492;9.214;2022-12-04T12:03:50;33.72;;;30.73;;
577;SDS011;275;48.492;9.214;2022-12-04T12:06:31;25.23;;;22.58;;
577;SDS011;275;48.492;9.214;2022-12-04T12:09:14;33.83;;;30.75;;
577;SDS011;275;48.492;9.214;2022-12-04T12:11:50;36.70;;;32.80;;
577;SDS011;275;48.492;9.214;2022-12-04T12:14:24;30.70;;;27.40;;
577;SDS011;275;48.492;9.214;2022-12-04T12:17:01;45.00;;;41.10;;
577;SDS011;275;48.492;9.214;2022-12-04T12:22:29;28.02;;;25.23;;
577;SDS011;275;48.492;9.214;2022-12-04T12:25:10;29.33;;;25.92;;
577;SDS011;275;48.492;9.214;2022-12-04T12:27:54;28.27;;;25.38;;
577;SDS011;275;48.492;9.214;2022-12-04T12:30:31;27.25;;;24.40;;
577;SDS011;275;48.492;9.214;2022-12-04T12:33:08;26.35;;;23.70;;
577;SDS011;275;48.492;9.214;2022-12-04T12:35:44;41.33;;;35.42;;
577;SDS011;275;48.492;9.214;2022-12-04T12:38:18;28.25;;;25.40;;
577;SDS011;275;48.492;9.214;2022-12-04T12:40:51;30.77;;;27.63;;
577;SDS011;275;48.492;9.214;2022-12-04T12:43:23;29.13;;;25.95;;
577;SDS011;275;48.492;9.214;2022-12-04T12:45:55;32.03;;;28.73;;
577;SDS011;275;48.492;9.214;2022-12-04T12:48:31;28.85;;;25.85;;
577;SDS011;275;48.492;9.214;2022-12-04T12:51:04;29.50;;;25.40;;
577;SDS011;275;48.492;9.214;2022-12-04T12:53:35;44.30;;;31.65;;
577;SDS011;275;48.492;9.214;2022-12-04T12:56:05;27.65;;;24.85;;
577;SDS011;275;48.492;9.214;2022-12-04T12:58:38;28.75;;;25.98;;
577;SDS011;275;48.492;9.214;2022-12-04T13:01:10;28.27;;;25.27;;
577;SDS011;275;48.492;9.214;2022-12-04T13:03:43;32.13;;;28.92;;
577;SDS011;275;48.492;9.214;2022-12-04T13:06:20;27.88;;;24.98;;
577;SDS011;275;48.492;9.214;2022-12-04T13:08:55;46.15;;;41.92;;
577;SDS011;275;48.492;9.214;2022-12-04T13:11:30;32.85;;;29.45;;
577;SDS011;275;48.492;9.214;2022-12-04T13:13:59;31.85;;;28.65;;
577;SDS011;275;48.492;9.214;2022-12-04T13:16:29;30.85;;;27.88;;
577;SDS011;275;48.492;9.214;2022-12-04T13:19:03;66.68;;;44.80;;
577;SDS011;275;48.492;9.214;2022-12-04T13:21:36;28.55;;;25.65;;
577;SDS011;275;48.492;9.214;2022-12-04T13:24:22;29.27;;;26.33;;
577;SDS011;275;48.492;9.214;2022-12-04T13:26:59;28.17;;;25.17;;
577;SDS011;275;48.492;9.214;2022-12-04T13:29:38;52.35;;;46.75;;
577;SDS011;275;48.492;9.214;2022-12-04T13:35:06;32.58;;;29.40;;
577;SDS011;275;48.492;9.214;2022-12-04T13:37:53;30.42;;;27.40;;
577;SDS011;275;48.492;9.214;2022-12-04T13:40:37;31.15;;;28.23;;
577;SDS011;275;48.492;9.214;2022-12-04T13:43:22;34.28;;;30.95;;
577;SDS011;275;48.492;9.214;2022-12-04T13:45:54;26.70;;;24.10;;
577;SDS011;275;48.492;9.214;2022-12-04T13:56:53;28.67;;;25.90;;
577;SDS011;275;48.492;9.214;2022-12-04T13:59:23;39.88;;;35.70;;
577;SDS011;275;48.492;9.214;2022-12-04T14:02:01;35.15;;;31.75;;
577;SDS011;275;48.492;9.214;2022-12-04T14:04:45;36.78;;;33.10;;
577;SDS011;275;48.492;9.214;2022-12-04T14:07:21;30.00;;;26.95;;
577;SDS011;275;48.492;9.214;2022-12-04T14:09:51;35.10;;;31.58;;
577;SDS011;275;48.492;9.214;2022-12-04T14:12:23;32.58;;;29.52;;
577;SDS011;275;48.492;9.214;2022-12-04T14:14:54;33.97;;;30.73;;
577;SDS011;275;48.492;9.214;2022-12-04T14:17:25;31.58;;;28.27;;
577;SDS011;275;48.492;9.214;2022-12-04T14:19:55;31.83;;;28.77;;
577;SDS011;275;48.492;9.214;2022-12-04T14:22:27;40.60;;;36.50;;
577;SDS011;275;48.492;9.214;2022-12-04T14:25:06;60.28;;;54.70;;
577;SDS011;275;48.492;9.214;2022-12-04T14:27:47;36.03;;;32.40;;
577;SDS011;275;48.492;9.214;2022-12-04T14:30:17;51.53;;;46.85;;
577;SDS011;275;48.492;9.214;2022-12-04T14:32:48;58.53;;;52.95;;
577;SDS011;275;48.492;9.214;2022-12-04T14:35:18;37.25;;;33.65;;
577;SDS011;275;48.492;9.214;2022-12-04T14:37:49;40.50;;;36.70;;
577;SDS011;275;48.492;9.214;2022-12-04T14:40:21;34.88;;;31.58;;
577;SDS011;275;48.492;9.214;2022-12-04T14:42:50;31.52;;;28.45;;
577;SDS011;275;48.492;9.214;2022-12-04T14:45:24;33.83;;;30.73;;
577;SDS011;275;48.492;9.214;2022-12-04T14:48:12;32.05;;;28.77;;
577;SDS011;275;48.492;9.214;2022-12-04T14:50:50;33.78;;;30.38;;
577;SDS011;275;48.492;9.214;2022-12-04T14:53:25;48.72;;;42.30;;
577;SDS011;275;48.492;9.214;2022-12-04T14:56:03;39.58;;;35.78;;
577;SDS011;275;48.492;9.214;2022-12-04T14:58:36;42.60;;;38.30;;
577;SDS011;275;48.492;9.214;2022-12-04T15:01:05;35.47;;;31.98;;
577;SDS011;275;48.492;9.214;2022-12-04T15:03:49;37.33;;;33.78;;
577;SDS011;275;48.492;9.214;2022-12-04T15:06:19;33.15;;;30.05;;
577;SDS011;275;48.492;9.214;2022-12-04T15:08:49;34.15;;;30.85;;
577;SDS011;275;48.492;9.214;2022-12-04T15:11:18;33.33;;;30.02;;
577;SDS011;275;48.492;9.214;2022-12-04T15:14:15;40.08;;;36.25;;
577;SDS011;275;48.492;9.214;2022-12-04T15:16:42;42.20;;;35.13;;
577;SDS011;275;48.492;9.214;2022-12-04T15:19:15;51.83;;;46.38;;
577;SDS011;275;48.492;9.214;2022-12-04T15:21:44;53.90;;;48.10;;
577;SDS011;275;48.492;9.214;2022-12-04T15:24:14;38.53;;;34.17;;
577;SDS011;275;48.492;9.214;2022-12-04T15:26:47;39.22;;;35.58;;
577;SDS011;275;48.492;9.214;2022-12-04T15:29:16;33.17;;;30.02;;
577;SDS011;275;48.492;9.214;2022-12-04T15:31:45;35.55;;;32.25;;
577;SDS011;275;48.492;9.214;2022-12-04T15:34:22;44.08;;;39.58;;
577;SDS011;275;48.492;9.214;2022-12-04T15:36:54;44.95;;;36.88;;
577;SDS011;275;48.492;9.214;2022-12-04T15:39:25;43.33;;;38.78;;
577;SDS011;275;48.492;9.214;2022-12-04T15:42:02;57.95;;;51.95;;
577;SDS011;275;48.492;9.214;2022-12-04T15:44:30;47.55;;;42.60;;
577;SDS011;275;48.492;9.214;2022-12-04T15:47:00;58.65;;;52.95;;
577;SDS011;275;48.492;9.214;2022-12-04T15:49:30;55.10;;;49.42;;
577;SDS011;275;48.492;9.214;2022-12-04T15:52:05;63.35;;;56.95;;
577;SDS011;275;48.492;9.214;2022-12-04T15:54:40;45.63;;;40.72;;
577;SDS011;275;48.492;9.214;2022-12-04T15:57:12;49.38;;;43.53;;